sensor_id;sensor_type;location;lat;lon;timestamp;temperature;humidity
12386;DHT22;6257;57.634;18.310;2023-04-23T00:02:18;6.50;99.90
12386;DHT22;6257;57.634;18.310;2023-04-23T00:04:49;6.50;99.90
12386;DHT22;6257;57.634;18.310;2023-04-23T00:07:18;6.40;99.90
12386;DHT22;6257;57.634;18.310;2023-04-23T00:09:46;8.60;99.90
12386;DHT22;6257;57.634;18.310;2023-04-23T00:14:44;6.40;99.90
12386;DHT22;6257;57.634;18.310;2023-04-23T00:17:11;6.40;99.90
12386;DHT22;6257;57.634;18.310;2023-04-23T00:19:38;6.40;99.90
12386;DHT22;6257;57.634;18.310;2023-04-23T00:22:05;6.30;99.90
12386;DHT22;6257;57.634;18.310;2023-04-23T00:24:32;6.30;99.90
12386;DHT22;6257;57.634;18.310;2023-04-23T00:27:01;6.30;99.90
12386;DHT22;6257;57.634;18.310;2023-04-23T00:29:30;6.20;99.90
12386;DHT22;6257;57.634;18.310;2023-04-23T00:31:57;6.20;99.90
12386;DHT22;6257;57.634;18.310;2023-04-23T00:34:25;6.20;99.90
12386;DHT22;6257;57.634;18.310;2023-04-23T00:36:52;6.20;99.90
12386;DHT22;6257;57.634;18.310;2023-04-23T00:39:19;6.20;99.90
12386;DHT22;6257;57.634;18.310;2023-04-23T00:41:47;6.20;99.90
12386;DHT22;6257;57.634;18.310;2023-04-23T00:44:14;6.30;99.90
12386;DHT22;6257;57.634;18.310;2023-04-23T00:46:43;6.30;99.90
12386;DHT22;6257;57.634;18.310;2023-04-23T00:49:10;6.40;99.90
12386;DHT22;6257;57.634;18.310;2023-04-23T00:51:38;6.50;99.90
12386;DHT22;6257;57.634;18.310;2023-04-23T00:54:05;6.50;99.90
12386;DHT22;6257;57.634;18.310;2023-04-23T00:56:32;6.50;99.90
12386;DHT22;6257;57.634;18.310;2023-04-23T00:59:00;6.50;99.90
12386;DHT22;6257;57.634;18.310;2023-04-23T01:01:27;6.50;99.90
12386;DHT22;6257;57.634;18.310;2023-04-23T01:03:56;6.50;99.90
12386;DHT22;6257;57.634;18.310;2023-04-23T01:06:24;6.50;99.90
12386;DHT22;6257;57.634;18.310;2023-04-23T01:08:53;6.50;99.90
12386;DHT22;6257;57.634;18.310;2023-04-23T01:11:20;6.50;99.90
12386;DHT22;6257;57.634;18.310;2023-04-23T01:13:47;6.50;99.90
12386;DHT22;6257;57.634;18.310;2023-04-23T01:16:14;6.50;99.90
12386;DHT22;6257;57.634;18.310;2023-04-23T01:18:42;6.50;99.90
12386;DHT22;6257;57.634;18.310;2023-04-23T01:21:11;6.40;99.90
12386;DHT22;6257;57.634;18.310;2023-04-23T01:23:39;6.40;99.90
12386;DHT22;6257;57.634;18.310;2023-04-23T01:26:06;6.40;99.90
12386;DHT22;6257;57.634;18.310;2023-04-23T01:28:36;6.40;99.90
12386;DHT22;6257;57.634;18.310;2023-04-23T01:31:03;6.40;99.90
12386;DHT22;6257;57.634;18.310;2023-04-23T01:33:31;6.30;99.90
12386;DHT22;6257;57.634;18.310;2023-04-23T01:35:59;6.30;99.90
12386;DHT22;6257;57.634;18.310;2023-04-23T01:38:27;6.40;99.90
12386;DHT22;6257;57.634;18.310;2023-04-23T01:40:57;6.40;99.90
12386;DHT22;6257;57.634;18.310;2023-04-23T01:43:24;6.40;99.90
12386;DHT22;6257;57.634;18.310;2023-04-23T01:45:52;6.40;99.90
12386;DHT22;6257;57.634;18.310;2023-04-23T01:48:19;6.40;99.90
12386;DHT22;6257;57.634;18.310;2023-04-23T01:50:47;6.40;99.90
12386;DHT22;6257;57.634;18.310;2023-04-23T01:53:14;6.40;99.90
12386;DHT22;6257;57.634;18.310;2023-04-23T01:55:42;6.30;99.90
12386;DHT22;6257;57.634;18.310;2023-04-23T01:58:12;6.30;99.90
12386;DHT22;6257;57.634;18.310;2023-04-23T02:00:40;6.30;99.90
12386;DHT22;6257;57.634;18.310;2023-04-23T02:03:07;6.30;99.90
12386;DHT22;6257;57.634;18.310;2023-04-23T02:05:34;6.20;99.90
12386;DHT22;6257;57.634;18.310;2023-04-23T02:08:02;6.20;99.90
12386;DHT22;6257;57.634;18.310;2023-04-23T02:10:29;6.20;99.90
12386;DHT22;6257;57.634;18.310;2023-04-23T02:12:57;6.10;99.90
12386;DHT22;6257;57.634;18.310;2023-04-23T02:15:25;6.10;99.90
12386;DHT22;6257;57.634;18.310;2023-04-23T02:17:52;6.10;99.90
12386;DHT22;6257;57.634;18.310;2023-04-23T02:20:20;6.10;99.90
12386;DHT22;6257;57.634;18.310;2023-04-23T02:22:48;6.10;99.90
12386;DHT22;6257;57.634;18.310;2023-04-23T02:25:17;6.10;99.90
12386;DHT22;6257;57.634;18.310;2023-04-23T02:27:46;6.10;99.90
12386;DHT22;6257;57.634;18.310;2023-04-23T02:30:13;6.20;99.90
12386;DHT22;6257;57.634;18.310;2023-04-23T02:32:42;6.20;99.90
12386;DHT22;6257;57.634;18.310;2023-04-23T02:35:09;6.20;99.90
12386;DHT22;6257;57.634;18.310;2023-04-23T02:37:37;6.10;99.90
12386;DHT22;6257;57.634;18.310;2023-04-23T02:40:05;6.00;99.90
12386;DHT22;6257;57.634;18.310;2023-04-23T02:42:33;6.00;99.90
12386;DHT22;6257;57.634;18.310;2023-04-23T02:45:00;6.00;99.90
12386;DHT22;6257;57.634;18.310;2023-04-23T02:47:27;5.90;99.90
12386;DHT22;6257;57.634;18.310;2023-04-23T02:49:57;5.90;99.90
12386;DHT22;6257;57.634;18.310;2023-04-23T02:52:27;5.90;99.90
12386;DHT22;6257;57.634;18.310;2023-04-23T02:54:54;5.90;99.90
12386;DHT22;6257;57.634;18.310;2023-04-23T02:57:22;5.90;99.90
12386;DHT22;6257;57.634;18.310;2023-04-23T02:59:49;5.90;99.90
12386;DHT22;6257;57.634;18.310;2023-04-23T03:02:16;5.80;99.90
12386;DHT22;6257;57.634;18.310;2023-04-23T03:04:43;5.80;99.90
12386;DHT22;6257;57.634;18.310;2023-04-23T03:07:12;5.80;99.90
12386;DHT22;6257;57.634;18.310;2023-04-23T03:09:41;5.80;99.90
12386;DHT22;6257;57.634;18.310;2023-04-23T03:12:09;5.70;99.90
12386;DHT22;6257;57.634;18.310;2023-04-23T03:14:36;5.70;99.90
12386;DHT22;6257;57.634;18.310;2023-04-23T03:17:03;5.60;99.90
12386;DHT22;6257;57.634;18.310;2023-04-23T03:19:31;5.60;99.90
12386;DHT22;6257;57.634;18.310;2023-04-23T03:21:58;5.50;99.90
12386;DHT22;6257;57.634;18.310;2023-04-23T03:24:29;5.50;99.90
12386;DHT22;6257;57.634;18.310;2023-04-23T03:29:24;5.40;99.90
12386;DHT22;6257;57.634;18.310;2023-04-23T03:31:51;5.30;99.90
12386;DHT22;6257;57.634;18.310;2023-04-23T03:34:19;5.30;99.90
12386;DHT22;6257;57.634;18.310;2023-04-23T03:36:46;5.30;99.90
12386;DHT22;6257;57.634;18.310;2023-04-23T03:39:13;5.20;99.90
12386;DHT22;6257;57.634;18.310;2023-04-23T03:41:42;5.20;99.90
12386;DHT22;6257;57.634;18.310;2023-04-23T03:44:09;5.20;99.90
12386;DHT22;6257;57.634;18.310;2023-04-23T03:46:36;5.20;99.90
12386;DHT22;6257;57.634;18.310;2023-04-23T03:49:03;5.30;99.90
12386;DHT22;6257;57.634;18.310;2023-04-23T03:51:30;5.40;99.90
12386;DHT22;6257;57.634;18.310;2023-04-23T03:53:57;5.40;99.90
12386;DHT22;6257;57.634;18.310;2023-04-23T03:56:24;5.50;99.90
12386;DHT22;6257;57.634;18.310;2023-04-23T04:01:20;5.60;99.90
12386;DHT22;6257;57.634;18.310;2023-04-23T04:03:47;5.70;99.90
12386;DHT22;6257;57.634;18.310;2023-04-23T04:06:14;5.70;99.90
12386;DHT22;6257;57.634;18.310;2023-04-23T04:08:41;5.80;99.90
12386;DHT22;6257;57.634;18.310;2023-04-23T04:11:08;5.90;99.90
12386;DHT22;6257;57.634;18.310;2023-04-23T04:13:35;6.00;99.90
12386;DHT22;6257;57.634;18.310;2023-04-23T04:16:04;6.10;99.90
12386;DHT22;6257;57.634;18.310;2023-04-23T04:18:30;6.20;99.90
12386;DHT22;6257;57.634;18.310;2023-04-23T04:20:58;6.40;99.90
12386;DHT22;6257;57.634;18.310;2023-04-23T04:23:25;6.50;99.90
12386;DHT22;6257;57.634;18.310;2023-04-23T04:25:52;6.70;99.90
12386;DHT22;6257;57.634;18.310;2023-04-23T04:28:21;6.70;99.90
12386;DHT22;6257;57.634;18.310;2023-04-23T04:30:50;6.90;99.90
12386;DHT22;6257;57.634;18.310;2023-04-23T04:35:45;7.10;99.90
12386;DHT22;6257;57.634;18.310;2023-04-23T04:38:13;7.20;99.90
12386;DHT22;6257;57.634;18.310;2023-04-23T04:40:41;7.40;99.90
12386;DHT22;6257;57.634;18.310;2023-04-23T04:43:08;7.60;99.90
12386;DHT22;6257;57.634;18.310;2023-04-23T04:45:35;7.80;99.90
12386;DHT22;6257;57.634;18.310;2023-04-23T04:48:02;8.00;99.90
12386;DHT22;6257;57.634;18.310;2023-04-23T04:52:58;8.50;99.90
12386;DHT22;6257;57.634;18.310;2023-04-23T04:55:26;8.60;99.90
12386;DHT22;6257;57.634;18.310;2023-04-23T04:57:53;8.90;99.90
12386;DHT22;6257;57.634;18.310;2023-04-23T05:00:22;9.10;99.90
12386;DHT22;6257;57.634;18.310;2023-04-23T05:02:52;9.50;99.90
12386;DHT22;6257;57.634;18.310;2023-04-23T05:05:21;9.80;99.90
12386;DHT22;6257;57.634;18.310;2023-04-23T05:07:50;10.00;99.90
12386;DHT22;6257;57.634;18.310;2023-04-23T05:10:19;9.90;99.90
12386;DHT22;6257;57.634;18.310;2023-04-23T05:12:47;9.80;99.90
12386;DHT22;6257;57.634;18.310;2023-04-23T05:15:16;9.70;99.90
12386;DHT22;6257;57.634;18.310;2023-04-23T05:17:43;9.70;99.90
12386;DHT22;6257;57.634;18.310;2023-04-23T05:20:10;9.70;99.90
12386;DHT22;6257;57.634;18.310;2023-04-23T05:22:38;9.70;99.90
12386;DHT22;6257;57.634;18.310;2023-04-23T05:25:08;9.90;99.90
12386;DHT22;6257;57.634;18.310;2023-04-23T05:27:36;9.90;99.90
12386;DHT22;6257;57.634;18.310;2023-04-23T05:30:05;9.90;99.90
12386;DHT22;6257;57.634;18.310;2023-04-23T05:32:32;10.00;99.90
12386;DHT22;6257;57.634;18.310;2023-04-23T05:35:00;10.00;99.90
12386;DHT22;6257;57.634;18.310;2023-04-23T05:37:27;9.90;99.90
12386;DHT22;6257;57.634;18.310;2023-04-23T05:39:54;9.90;99.90
12386;DHT22;6257;57.634;18.310;2023-04-23T05:44:50;10.30;99.90
12386;DHT22;6257;57.634;18.310;2023-04-23T05:47:17;10.50;99.90
12386;DHT22;6257;57.634;18.310;2023-04-23T05:49:44;10.60;99.90
12386;DHT22;6257;57.634;18.310;2023-04-23T05:52:12;10.80;99.90
12386;DHT22;6257;57.634;18.310;2023-04-23T05:54:40;10.80;99.90
12386;DHT22;6257;57.634;18.310;2023-04-23T05:57:07;10.80;99.90
12386;DHT22;6257;57.634;18.310;2023-04-23T05:59:35;10.90;99.90
12386;DHT22;6257;57.634;18.310;2023-04-23T06:02:02;10.80;99.90
12386;DHT22;6257;57.634;18.310;2023-04-23T06:04:29;10.90;99.90
12386;DHT22;6257;57.634;18.310;2023-04-23T06:06:56;11.00;99.90
12386;DHT22;6257;57.634;18.310;2023-04-23T06:09:23;11.00;99.90
12386;DHT22;6257;57.634;18.310;2023-04-23T06:11:51;11.10;99.90
12386;DHT22;6257;57.634;18.310;2023-04-23T06:14:18;11.20;99.90
12386;DHT22;6257;57.634;18.310;2023-04-23T06:16:47;11.30;99.90
12386;DHT22;6257;57.634;18.310;2023-04-23T06:19:14;11.40;99.90
12386;DHT22;6257;57.634;18.310;2023-04-23T06:21:41;11.50;99.90
12386;DHT22;6257;57.634;18.310;2023-04-23T06:24:08;11.60;99.90
12386;DHT22;6257;57.634;18.310;2023-04-23T06:26:35;11.80;99.90
12386;DHT22;6257;57.634;18.310;2023-04-23T06:29:02;11.90;99.90
12386;DHT22;6257;57.634;18.310;2023-04-23T06:31:29;11.90;99.90
12386;DHT22;6257;57.634;18.310;2023-04-23T06:33:57;12.10;99.90
12386;DHT22;6257;57.634;18.310;2023-04-23T06:36:25;12.20;99.90
12386;DHT22;6257;57.634;18.310;2023-04-23T06:38:52;12.20;99.90
12386;DHT22;6257;57.634;18.310;2023-04-23T06:41:19;12.30;99.90
12386;DHT22;6257;57.634;18.310;2023-04-23T06:43:46;12.30;99.90
12386;DHT22;6257;57.634;18.310;2023-04-23T06:46:13;12.20;99.90
12386;DHT22;6257;57.634;18.310;2023-04-23T06:48:40;12.30;99.90
12386;DHT22;6257;57.634;18.310;2023-04-23T06:53:36;12.60;99.90
12386;DHT22;6257;57.634;18.310;2023-04-23T06:56:03;12.70;99.90
12386;DHT22;6257;57.634;18.310;2023-04-23T06:58:30;12.80;99.90
12386;DHT22;6257;57.634;18.310;2023-04-23T07:00:57;12.80;99.90
12386;DHT22;6257;57.634;18.310;2023-04-23T07:03:26;13.00;99.90
12386;DHT22;6257;57.634;18.310;2023-04-23T07:05:53;13.00;99.90
12386;DHT22;6257;57.634;18.310;2023-04-23T07:10:49;13.20;99.90
12386;DHT22;6257;57.634;18.310;2023-04-23T07:13:16;13.30;99.90
12386;DHT22;6257;57.634;18.310;2023-04-23T07:15:43;13.40;99.90
12386;DHT22;6257;57.634;18.310;2023-04-23T07:18:11;13.60;99.90
12386;DHT22;6257;57.634;18.310;2023-04-23T07:20:38;13.80;99.90
12386;DHT22;6257;57.634;18.310;2023-04-23T07:23:05;14.00;99.90
12386;DHT22;6257;57.634;18.310;2023-04-23T07:25:33;14.00;99.90
12386;DHT22;6257;57.634;18.310;2023-04-23T07:28:00;13.90;99.90
12386;DHT22;6257;57.634;18.310;2023-04-23T07:30:28;14.10;99.90
12386;DHT22;6257;57.634;18.310;2023-04-23T07:32:55;14.30;99.90
12386;DHT22;6257;57.634;18.310;2023-04-23T07:35:22;14.50;99.90
12386;DHT22;6257;57.634;18.310;2023-04-23T07:37:49;14.60;99.90
12386;DHT22;6257;57.634;18.310;2023-04-23T07:40:19;14.70;99.90
12386;DHT22;6257;57.634;18.310;2023-04-23T07:42:48;15.00;99.90
12386;DHT22;6257;57.634;18.310;2023-04-23T07:45:16;15.10;99.90
12386;DHT22;6257;57.634;18.310;2023-04-23T07:47:43;15.30;99.90
12386;DHT22;6257;57.634;18.310;2023-04-23T07:50:12;15.40;99.90
12386;DHT22;6257;57.634;18.310;2023-04-23T07:52:39;15.80;99.90
12386;DHT22;6257;57.634;18.310;2023-04-23T07:55:07;16.30;99.90
12386;DHT22;6257;57.634;18.310;2023-04-23T07:57:34;16.70;99.90
12386;DHT22;6257;57.634;18.310;2023-04-23T08:02:30;17.30;99.90
12386;DHT22;6257;57.634;18.310;2023-04-23T08:04:58;17.80;99.40
12386;DHT22;6257;57.634;18.310;2023-04-23T08:07:25;18.30;99.00
12386;DHT22;6257;57.634;18.310;2023-04-23T08:09:52;19.10;98.40
12386;DHT22;6257;57.634;18.310;2023-04-23T08:12:19;20.30;96.40
12386;DHT22;6257;57.634;18.310;2023-04-23T08:14:46;21.40;93.80
12386;DHT22;6257;57.634;18.310;2023-04-23T08:17:14;22.00;92.30
12386;DHT22;6257;57.634;18.310;2023-04-23T08:19:42;22.20;91.50
12386;DHT22;6257;57.634;18.310;2023-04-23T08:22:08;22.30;91.70
12386;DHT22;6257;57.634;18.310;2023-04-23T08:24:37;22.60;90.80
12386;DHT22;6257;57.634;18.310;2023-04-23T08:27:05;23.00;91.00
12386;DHT22;6257;57.634;18.310;2023-04-23T08:29:32;23.50;91.10
12386;DHT22;6257;57.634;18.310;2023-04-23T08:31:59;24.20;88.30
12386;DHT22;6257;57.634;18.310;2023-04-23T08:34:28;24.20;88.10
12386;DHT22;6257;57.634;18.310;2023-04-23T08:36:55;24.00;87.20
12386;DHT22;6257;57.634;18.310;2023-04-23T08:39:22;24.20;86.10
12386;DHT22;6257;57.634;18.310;2023-04-23T08:41:54;24.40;86.30
12386;DHT22;6257;57.634;18.310;2023-04-23T08:44:22;24.20;87.20
12386;DHT22;6257;57.634;18.310;2023-04-23T08:46:52;23.80;87.70
12386;DHT22;6257;57.634;18.310;2023-04-23T08:49:20;22.80;88.40
12386;DHT22;6257;57.634;18.310;2023-04-23T08:51:51;21.40;90.30
12386;DHT22;6257;57.634;18.310;2023-04-23T08:54:21;17.10;88.70
12386;DHT22;6257;57.634;18.310;2023-04-23T08:56:52;19.70;92.90
12386;DHT22;6257;57.634;18.310;2023-04-23T08:59:22;19.30;92.30
12386;DHT22;6257;57.634;18.310;2023-04-23T09:01:49;19.10;93.30
12386;DHT22;6257;57.634;18.310;2023-04-23T09:04:16;18.90;93.90
12386;DHT22;6257;57.634;18.310;2023-04-23T09:06:45;19.00;94.40
12386;DHT22;6257;57.634;18.310;2023-04-23T09:09:15;18.90;93.00
12386;DHT22;6257;57.634;18.310;2023-04-23T09:11:43;18.90;92.80
12386;DHT22;6257;57.634;18.310;2023-04-23T09:19:08;19.00;94.00
12386;DHT22;6257;57.634;18.310;2023-04-23T09:21:38;19.00;94.00
12386;DHT22;6257;57.634;18.310;2023-04-23T09:24:08;18.90;94.00
12386;DHT22;6257;57.634;18.310;2023-04-23T09:26:43;18.90;94.20
12386;DHT22;6257;57.634;18.310;2023-04-23T09:29:12;18.80;94.10
12386;DHT22;6257;57.634;18.310;2023-04-23T09:31:42;18.90;94.30
12386;DHT22;6257;57.634;18.310;2023-04-23T09:34:09;18.90;94.90
12386;DHT22;6257;57.634;18.310;2023-04-23T09:36:36;19.00;94.80
12386;DHT22;6257;57.634;18.310;2023-04-23T09:39:11;19.10;94.10
12386;DHT22;6257;57.634;18.310;2023-04-23T09:41:39;19.10;93.80
12386;DHT22;6257;57.634;18.310;2023-04-23T09:44:06;19.00;93.00
12386;DHT22;6257;57.634;18.310;2023-04-23T09:46:35;18.90;93.00
12386;DHT22;6257;57.634;18.310;2023-04-23T09:49:03;18.90;93.90
12386;DHT22;6257;57.634;18.310;2023-04-23T09:51:34;18.90;93.30
12386;DHT22;6257;57.634;18.310;2023-04-23T09:54:01;18.90;94.10
12386;DHT22;6257;57.634;18.310;2023-04-23T09:56:29;19.10;93.80
12386;DHT22;6257;57.634;18.310;2023-04-23T10:01:28;19.10;93.80
12386;DHT22;6257;57.634;18.310;2023-04-23T10:03:56;19.00;93.80
12386;DHT22;6257;57.634;18.310;2023-04-23T10:06:29;19.10;93.90
12386;DHT22;6257;57.634;18.310;2023-04-23T10:08:57;19.10;93.60
12386;DHT22;6257;57.634;18.310;2023-04-23T10:11:24;19.20;92.90
12386;DHT22;6257;57.634;18.310;2023-04-23T10:13:52;19.30;92.90
12386;DHT22;6257;57.634;18.310;2023-04-23T10:16:22;19.20;93.50
12386;DHT22;6257;57.634;18.310;2023-04-23T10:18:51;19.20;93.00
12386;DHT22;6257;57.634;18.310;2023-04-23T10:21:20;19.20;91.70
12386;DHT22;6257;57.634;18.310;2023-04-23T10:23:51;19.10;91.20
12386;DHT22;6257;57.634;18.310;2023-04-23T10:26:19;19.00;92.20
12386;DHT22;6257;57.634;18.310;2023-04-23T10:28:49;19.10;92.60
12386;DHT22;6257;57.634;18.310;2023-04-23T10:31:22;19.10;92.10
12386;DHT22;6257;57.634;18.310;2023-04-23T10:33:50;19.20;93.00
12386;DHT22;6257;57.634;18.310;2023-04-23T10:36:17;19.30;92.20
12386;DHT22;6257;57.634;18.310;2023-04-23T10:38:45;19.30;93.00
12386;DHT22;6257;57.634;18.310;2023-04-23T10:41:15;19.40;91.50
12386;DHT22;6257;57.634;18.310;2023-04-23T10:43:43;19.40;92.40
12386;DHT22;6257;57.634;18.310;2023-04-23T10:46:29;19.50;92.80
12386;DHT22;6257;57.634;18.310;2023-04-23T10:49:08;19.50;90.60
12386;DHT22;6257;57.634;18.310;2023-04-23T10:51:38;19.50;90.90
12386;DHT22;6257;57.634;18.310;2023-04-23T10:54:07;19.50;90.50
12386;DHT22;6257;57.634;18.310;2023-04-23T10:56:37;19.50;91.20
12386;DHT22;6257;57.634;18.310;2023-04-23T10:59:05;19.50;90.70
12386;DHT22;6257;57.634;18.310;2023-04-23T11:01:34;19.60;91.30
12386;DHT22;6257;57.634;18.310;2023-04-23T11:04:20;19.60;91.80
12386;DHT22;6257;57.634;18.310;2023-04-23T11:06:52;19.70;91.90
12386;DHT22;6257;57.634;18.310;2023-04-23T11:09:28;19.60;91.80
12386;DHT22;6257;57.634;18.310;2023-04-23T11:11:56;19.40;90.60
12386;DHT22;6257;57.634;18.310;2023-04-23T11:14:33;19.40;91.50
12386;DHT22;6257;57.634;18.310;2023-04-23T11:17:02;19.60;90.90
12386;DHT22;6257;57.634;18.310;2023-04-23T11:19:29;19.40;90.40
12386;DHT22;6257;57.634;18.310;2023-04-23T11:22:02;19.30;91.10
12386;DHT22;6257;57.634;18.310;2023-04-23T11:24:30;19.40;92.40
12386;DHT22;6257;57.634;18.310;2023-04-23T11:26:58;19.30;90.50
12386;DHT22;6257;57.634;18.310;2023-04-23T11:29:26;19.40;90.90
12386;DHT22;6257;57.634;18.310;2023-04-23T11:31:55;19.20;90.70
12386;DHT22;6257;57.634;18.310;2023-04-23T11:34:23;19.30;91.60
12386;DHT22;6257;57.634;18.310;2023-04-23T11:36:52;19.40;90.90
12386;DHT22;6257;57.634;18.310;2023-04-23T11:39:20;19.30;90.80
12386;DHT22;6257;57.634;18.310;2023-04-23T11:41:48;19.20;91.50
12386;DHT22;6257;57.634;18.310;2023-04-23T11:44:17;19.20;90.70
12386;DHT22;6257;57.634;18.310;2023-04-23T11:46:45;19.10;90.70
12386;DHT22;6257;57.634;18.310;2023-04-23T11:49:13;19.10;90.70
12386;DHT22;6257;57.634;18.310;2023-04-23T11:51:43;19.00;90.30
12386;DHT22;6257;57.634;18.310;2023-04-23T11:54:10;18.90;90.90
12386;DHT22;6257;57.634;18.310;2023-04-23T11:56:38;18.90;90.50
12386;DHT22;6257;57.634;18.310;2023-04-23T11:59:06;19.10;91.50
12386;DHT22;6257;57.634;18.310;2023-04-23T12:01:40;19.20;90.30
12386;DHT22;6257;57.634;18.310;2023-04-23T12:04:14;19.10;89.10
12386;DHT22;6257;57.634;18.310;2023-04-23T12:06:44;19.00;88.70
12386;DHT22;6257;57.634;18.310;2023-04-23T12:09:12;19.00;90.20
12386;DHT22;6257;57.634;18.310;2023-04-23T12:11:39;19.10;90.00
12386;DHT22;6257;57.634;18.310;2023-04-23T12:14:07;19.10;89.70
12386;DHT22;6257;57.634;18.310;2023-04-23T12:16:36;19.10;90.30
12386;DHT22;6257;57.634;18.310;2023-04-23T12:19:06;19.10;90.30
12386;DHT22;6257;57.634;18.310;2023-04-23T12:21:33;19.10;90.80
12386;DHT22;6257;57.634;18.310;2023-04-23T12:24:04;19.10;90.30
12386;DHT22;6257;57.634;18.310;2023-04-23T12:26:31;19.00;90.10
12386;DHT22;6257;57.634;18.310;2023-04-23T12:28:59;19.00;90.20
12386;DHT22;6257;57.634;18.310;2023-04-23T12:31:27;18.90;90.20
12386;DHT22;6257;57.634;18.310;2023-04-23T12:34:00;18.90;91.30
12386;DHT22;6257;57.634;18.310;2023-04-23T12:36:28;19.10;91.30
12386;DHT22;6257;57.634;18.310;2023-04-23T12:39:22;19.30;90.40
12386;DHT22;6257;57.634;18.310;2023-04-23T12:41:50;19.40;90.20
12386;DHT22;6257;57.634;18.310;2023-04-23T12:44:18;19.40;90.20
12386;DHT22;6257;57.634;18.310;2023-04-23T12:46:49;19.30;91.00
12386;DHT22;6257;57.634;18.310;2023-04-23T12:49:17;19.50;87.90
12386;DHT22;6257;57.634;18.310;2023-04-23T12:51:44;19.50;90.20
12386;DHT22;6257;57.634;18.310;2023-04-23T12:54:11;19.60;91.10
12386;DHT22;6257;57.634;18.310;2023-04-23T12:56:39;19.60;89.40
12386;DHT22;6257;57.634;18.310;2023-04-23T12:59:06;19.50;88.60
12386;DHT22;6257;57.634;18.310;2023-04-23T13:01:33;19.30;87.90
12386;DHT22;6257;57.634;18.310;2023-04-23T13:04:01;19.20;87.10
12386;DHT22;6257;57.634;18.310;2023-04-23T13:06:28;19.20;88.00
12386;DHT22;6257;57.634;18.310;2023-04-23T13:08:55;19.40;88.10
12386;DHT22;6257;57.634;18.310;2023-04-23T13:11:22;19.50;86.90
12386;DHT22;6257;57.634;18.310;2023-04-23T13:13:51;19.50;89.40
12386;DHT22;6257;57.634;18.310;2023-04-23T13:16:18;19.50;88.10
12386;DHT22;6257;57.634;18.310;2023-04-23T13:18:45;19.50;90.30
12386;DHT22;6257;57.634;18.310;2023-04-23T13:21:12;19.40;88.50
12386;DHT22;6257;57.634;18.310;2023-04-23T13:23:40;19.20;87.40
12386;DHT22;6257;57.634;18.310;2023-04-23T13:26:07;19.00;88.10
12386;DHT22;6257;57.634;18.310;2023-04-23T13:28:34;18.90;88.60
12386;DHT22;6257;57.634;18.310;2023-04-23T13:31:03;18.90;89.30
12386;DHT22;6257;57.634;18.310;2023-04-23T13:33:31;18.90;91.00
12386;DHT22;6257;57.634;18.310;2023-04-23T13:35:59;19.00;90.40
12386;DHT22;6257;57.634;18.310;2023-04-23T13:38:27;19.10;90.70
12386;DHT22;6257;57.634;18.310;2023-04-23T13:40:54;19.20;90.80
12386;DHT22;6257;57.634;18.310;2023-04-23T13:43:22;19.20;90.90
12386;DHT22;6257;57.634;18.310;2023-04-23T13:45:49;19.30;91.30
12386;DHT22;6257;57.634;18.310;2023-04-23T13:48:19;19.30;91.70
12386;DHT22;6257;57.634;18.310;2023-04-23T13:50:46;19.40;91.40
12386;DHT22;6257;57.634;18.310;2023-04-23T13:53:13;19.20;90.40
12386;DHT22;6257;57.634;18.310;2023-04-23T13:55:40;19.10;91.30
12386;DHT22;6257;57.634;18.310;2023-04-23T13:58:07;18.90;91.40
12386;DHT22;6257;57.634;18.310;2023-04-23T14:00:34;18.80;91.00
12386;DHT22;6257;57.634;18.310;2023-04-23T14:03:01;18.60;90.90
12386;DHT22;6257;57.634;18.310;2023-04-23T14:05:30;18.60;91.80
12386;DHT22;6257;57.634;18.310;2023-04-23T14:07:57;18.60;91.70
12386;DHT22;6257;57.634;18.310;2023-04-23T14:10:24;18.50;92.50
12386;DHT22;6257;57.634;18.310;2023-04-23T14:12:51;18.50;91.30
12386;DHT22;6257;57.634;18.310;2023-04-23T14:15:19;18.40;91.30
12386;DHT22;6257;57.634;18.310;2023-04-23T14:17:46;18.30;91.20
12386;DHT22;6257;57.634;18.310;2023-04-23T14:20:14;18.30;90.90
12386;DHT22;6257;57.634;18.310;2023-04-23T14:22:42;17.60;90.50
12386;DHT22;6257;57.634;18.310;2023-04-23T14:25:15;18.20;91.10
12386;DHT22;6257;57.634;18.310;2023-04-23T14:27:50;18.30;91.30
12386;DHT22;6257;57.634;18.310;2023-04-23T14:30:21;18.30;91.40
12386;DHT22;6257;57.634;18.310;2023-04-23T14:32:50;18.40;91.10
12386;DHT22;6257;57.634;18.310;2023-04-23T14:35:20;18.30;91.30
12386;DHT22;6257;57.634;18.310;2023-04-23T14:37:49;18.30;91.30
12386;DHT22;6257;57.634;18.310;2023-04-23T14:40:16;18.30;91.30
12386;DHT22;6257;57.634;18.310;2023-04-23T14:42:46;18.30;91.60
12386;DHT22;6257;57.634;18.310;2023-04-23T14:45:14;18.30;91.00
12386;DHT22;6257;57.634;18.310;2023-04-23T14:47:43;18.20;91.70
12386;DHT22;6257;57.634;18.310;2023-04-23T14:50:13;18.20;91.60
12386;DHT22;6257;57.634;18.310;2023-04-23T14:52:41;18.20;91.90
12386;DHT22;6257;57.634;18.310;2023-04-23T14:55:12;18.20;92.10
12386;DHT22;6257;57.634;18.310;2023-04-23T14:57:39;18.20;93.10
12386;DHT22;6257;57.634;18.310;2023-04-23T15:00:07;18.30;92.70
12386;DHT22;6257;57.634;18.310;2023-04-23T15:02:37;18.30;92.50
12386;DHT22;6257;57.634;18.310;2023-04-23T15:05:05;18.30;92.80
12386;DHT22;6257;57.634;18.310;2023-04-23T15:07:33;18.30;92.70
12386;DHT22;6257;57.634;18.310;2023-04-23T15:10:00;19.50;92.80
12386;DHT22;6257;57.634;18.310;2023-04-23T15:12:48;18.10;92.30
12386;DHT22;6257;57.634;18.310;2023-04-23T15:15:20;17.80;92.80
12386;DHT22;6257;57.634;18.310;2023-04-23T15:17:48;17.70;93.30
12386;DHT22;6257;57.634;18.310;2023-04-23T15:20:15;17.50;93.20
12386;DHT22;6257;57.634;18.310;2023-04-23T15:22:42;17.50;93.60
12386;DHT22;6257;57.634;18.310;2023-04-23T15:25:10;17.50;94.20
12386;DHT22;6257;57.634;18.310;2023-04-23T15:27:37;17.50;94.00
12386;DHT22;6257;57.634;18.310;2023-04-23T15:30:06;17.50;93.70
12386;DHT22;6257;57.634;18.310;2023-04-23T15:35:01;17.60;93.60
12386;DHT22;6257;57.634;18.310;2023-04-23T15:37:28;17.60;93.70
12386;DHT22;6257;57.634;18.310;2023-04-23T15:39:56;17.60;94.00
12386;DHT22;6257;57.634;18.310;2023-04-23T15:42:23;17.50;94.70
12386;DHT22;6257;57.634;18.310;2023-04-23T15:44:51;17.40;93.50
12386;DHT22;6257;57.634;18.310;2023-04-23T15:49:49;17.10;94.20
12386;DHT22;6257;57.634;18.310;2023-04-23T15:52:16;17.00;94.30
12386;DHT22;6257;57.634;18.310;2023-04-23T15:54:43;16.90;94.50
12386;DHT22;6257;57.634;18.310;2023-04-23T15:57:11;16.70;94.80
12386;DHT22;6257;57.634;18.310;2023-04-23T15:59:38;16.60;94.30
12386;DHT22;6257;57.634;18.310;2023-04-23T16:02:05;16.70;94.40
12386;DHT22;6257;57.634;18.310;2023-04-23T16:04:33;16.70;94.70
12386;DHT22;6257;57.634;18.310;2023-04-23T16:07:01;16.60;94.60
12386;DHT22;6257;57.634;18.310;2023-04-23T16:09:28;16.60;94.50
12386;DHT22;6257;57.634;18.310;2023-04-23T16:11:57;16.60;94.70
12386;DHT22;6257;57.634;18.310;2023-04-23T16:14:24;16.60;94.80
12386;DHT22;6257;57.634;18.310;2023-04-23T16:16:51;16.60;95.10